Time;durP1;ratioP1;P1;durP2;ratioP2;P2;SDS_P1;SDS_P2;PMS_P1;PMS_P2;Temp;Humidity;BMP_temperature;BMP_pressure;BME280_temperature;BME280_humidity;BME280_pressure;Samples;Min_cycle;Max_cycle;Signal;HPM_P1;HPM_P2
2022/04/21 00:01:31;;;;;;;8.77;4.50;;;;;;;9.69;56.89;101304.34;5052368;28;20028;-85
2022/04/21 00:03:56;;;;;;;8.93;4.70;;;;;;;9.65;56.48;101305.25;5051712;28;20375;-85
2022/04/21 00:06:22;;;;;;;7.17;4.10;;;;;;;9.67;56.25;101302.63;5051981;28;20037;-85
2022/04/21 00:08:47;;;;;;;11.17;5.30;;;;;;;9.61;57.97;101298.34;5051979;28;20029;-85
2022/04/21 00:11:12;;;;;;;9.00;4.70;;;;;;;9.60;58.60;101301.78;5052054;28;20040;-85
2022/04/21 00:13:38;;;;;;;7.43;4.63;;;;;;;9.58;58.15;101300.94;5051854;28;20126;-85
2022/04/21 00:16:03;;;;;;;7.90;4.80;;;;;;;9.52;57.29;101290.59;5052421;28;20047;-85
2022/04/21 00:18:28;;;;;;;7.33;4.13;;;;;;;9.54;57.94;101300.09;5051432;28;20056;-85
2022/04/21 00:20:54;;;;;;;6.37;3.83;;;;;;;9.55;57.38;101301.81;5052023;28;20100;-85
2022/04/21 00:23:29;;;;;;;8.83;5.33;;;;;;;9.43;58.56;101296.66;5052276;28;20041;-85
2022/04/21 00:25:59;;;;;;;9.23;4.68;;;;;;;9.46;58.02;101299.25;5051518;28;20029;-85
2022/04/21 00:28:25;;;;;;;8.98;4.65;;;;;;;9.44;57.70;101298.41;5052110;28;20025;-85
2022/04/21 00:30:50;;;;;;;7.73;4.67;;;;;;;9.41;57.98;101295.81;5052791;28;20086;-85
2022/04/21 00:33:17;;;;;;;6.03;4.00;;;;;;;9.39;58.62;101294.97;5055735;28;20056;-85
2022/04/21 00:35:42;;;;;;;8.25;4.68;;;;;;;9.34;59.02;101295.00;5055582;28;20060;-85
2022/04/21 00:38:08;;;;;;;7.73;4.33;;;;;;;9.33;58.88;101285.50;5056164;28;20112;-85
2022/04/21 00:40:33;;;;;;;7.17;4.50;;;;;;;9.38;57.50;101299.28;5055425;28;20090;-85
2022/04/21 00:42:59;;;;;;;6.13;3.80;;;;;;;9.34;57.37;101294.09;5055478;28;20029;-85
2022/04/21 00:45:29;;;;;;;5.03;3.40;;;;;;;9.34;57.70;101295.00;5055809;28;20029;-85
2022/04/21 00:47:56;;;;;;;5.22;3.25;;;;;;;9.33;57.56;101290.66;5054811;28;20027;-86
2022/04/21 00:50:33;;;;;;;5.50;3.25;;;;;;;9.26;58.96;101291.53;5055639;28;20366;-85
2022/04/21 00:53:01;;;;;;;6.20;3.40;;;;;;;9.26;57.66;101286.34;5054854;28;20036;-85
2022/04/21 00:55:26;;;;;;;5.18;3.50;;;;;;;9.23;58.65;101286.38;5055390;28;20021;-85
2022/04/21 00:57:54;;;;;;;8.87;4.67;;;;;;;9.16;59.07;101282.94;5055450;28;20029;-85
2022/04/21 01:00:19;;;;;;;6.95;4.32;;;;;;;9.14;59.30;101292.44;5055148;28;20013;-85
2022/04/21 01:02:52;;;;;;;7.00;4.13;;;;;;;9.10;59.88;101291.59;5054765;28;20358;-85
2022/04/21 01:05:28;;;;;;;8.70;4.72;;;;;;;9.04;59.78;101281.22;5055571;28;20078;-85
2022/04/21 01:07:54;;;;;;;6.78;4.13;;;;;;;9.06;59.67;101283.84;5054413;28;20049;-85
2022/04/21 01:10:20;;;;;;;6.50;3.78;;;;;;;9.06;59.07;101286.44;5055001;28;20049;-85
2022/04/21 01:12:49;;;;;;;6.33;4.00;;;;;;;8.99;59.80;101282.97;5054672;28;20564;-86
2022/04/21 01:15:14;;;;;;;8.70;4.53;;;;;;;8.95;59.71;101286.44;5054296;28;20071;-85
2022/04/21 01:17:40;;;;;;;9.83;5.13;;;;;;;8.93;60.04;101285.56;5054384;28;20037;-85
2022/04/21 01:20:07;;;;;;;7.30;4.43;;;;;;;8.97;58.93;101284.69;5055181;28;20120;-85
2022/04/21 01:22:32;;;;;;;8.05;4.72;;;;;;;8.94;59.78;101279.53;5054382;28;20033;-86
2022/04/21 01:24:58;;;;;;;8.32;4.88;;;;;;;8.91;60.08;101285.56;5054815;28;20033;-86
2022/04/21 01:27:27;;;;;;;9.60;5.20;;;;;;;8.87;60.15;101277.81;5055026;28;20063;-86
2022/04/21 01:29:53;;;;;;;10.07;5.15;;;;;;;8.89;59.96;101268.31;5054080;28;20029;-85
2022/04/21 01:32:19;;;;;;;9.20;4.87;;;;;;;8.84;60.31;101281.25;5055011;28;20028;-86
2022/04/21 01:34:44;;;;;;;8.50;4.50;;;;;;;8.86;59.67;101278.69;5054801;28;20021;-86
2022/04/21 01:42:37;;;;;;;9.43;4.88;;;;;;;8.78;60.67;101273.50;5053295;28;20416;-85
2022/04/21 01:45:03;;;;;;;7.70;4.80;;;;;;;8.76;60.92;101263.16;5054702;28;20096;-86
2022/04/21 01:47:31;;;;;;;8.17;4.70;;;;;;;8.74;59.92;101270.06;5054684;28;20377;-85
2022/04/21 01:49:56;;;;;;;7.65;4.65;;;;;;;8.74;60.68;101272.66;5054145;28;20040;-86
2022/04/21 01:52:22;;;;;;;9.03;4.90;;;;;;;8.73;59.99;101265.75;5054550;28;20477;-86
2022/04/21 01:54:50;;;;;;;8.07;4.73;;;;;;;8.68;60.91;101269.19;5054153;28;20400;-86
2022/04/21 01:57:17;;;;;;;7.72;4.38;;;;;;;8.68;60.11;101274.38;5053809;28;20366;-86
2022/04/21 01:59:42;;;;;;;8.52;4.45;;;;;;;8.63;60.74;101276.97;5054463;28;20155;-85
2022/04/21 02:02:07;;;;;;;7.13;4.60;;;;;;;8.63;59.95;101271.78;5054649;28;20111;-86
2022/04/21 02:04:32;;;;;;;6.93;4.10;;;;;;;8.62;61.00;101267.47;5053956;28;20032;-85
2022/04/21 02:06:58;;;;;;;6.07;3.73;;;;;;;8.60;60.50;101269.19;5054098;28;20033;-86
2022/04/21 02:09:23;;;;;;;7.97;4.33;;;;;;;8.55;61.15;101278.69;5053991;28;20385;-85
2022/04/21 02:11:49;;;;;;;7.87;4.67;;;;;;;8.52;61.26;101273.53;5053301;28;20021;-86
2022/04/21 02:14:14;;;;;;;5.55;3.85;;;;;;;8.50;60.40;101274.38;5053618;28;20064;-85
2022/04/21 02:16:39;;;;;;;8.50;4.97;;;;;;;8.46;61.43;101277.78;5053557;28;20053;-86
2022/04/21 02:19:07;;;;;;;9.47;4.83;;;;;;;8.43;61.86;101272.63;5053258;28;20487;-85
2022/04/21 02:21:32;;;;;;;8.93;4.97;;;;;;;8.35;62.04;101274.31;5053790;28;20116;-86
2022/04/21 02:23:57;;;;;;;9.50;4.90;;;;;;;8.35;61.90;101274.31;5053473;28;20057;-85
2022/04/21 02:26:23;;;;;;;7.60;4.70;;;;;;;8.31;61.95;101276.06;5052993;28;20098;-86
2022/04/21 02:28:48;;;;;;;9.33;5.07;;;;;;;8.27;61.96;101271.75;5053723;28;20477;-85
2022/04/21 02:31:13;;;;;;;6.70;4.50;;;;;;;8.27;62.18;101283.81;5053807;28;20051;-85
2022/04/21 02:33:38;;;;;;;9.68;4.82;;;;;;;8.26;61.92;101279.50;5052783;28;20029;-85
2022/04/21 02:36:04;;;;;;;6.55;4.13;;;;;;;8.25;60.71;101273.47;5053606;28;20507;-86
2022/04/21 02:38:32;;;;;;;7.68;4.05;;;;;;;8.22;62.45;101268.28;5053394;28;20418;-86
2022/04/21 02:40:57;;;;;;;10.57;5.15;;;;;;;8.14;62.36;101273.44;5053203;28;20065;-85
2022/04/21 02:43:22;;;;;;;10.13;4.80;;;;;;;8.15;61.24;101274.31;5053616;28;20071;-86
2022/04/21 02:45:48;;;;;;;10.80;5.30;;;;;;;8.07;62.27;101271.72;5052918;28;20021;-86
2022/04/21 02:48:14;;;;;;;9.05;5.05;;;;;;;8.04;62.62;101275.16;5053624;28;20020;-86
2022/04/21 02:50:40;;;;;;;11.13;5.32;;;;;;;7.99;63.14;101270.84;5053391;28;20116;-86
2022/04/21 02:53:08;;;;;;;9.23;5.10;;;;;;;7.93;62.77;101261.34;5052813;28;20029;-85
2022/04/21 02:58:19;;;;;;;10.38;4.82;;;;;;;7.89;63.32;101262.19;5033819;28;20040;-86
2022/04/21 03:00:45;;;;;;;10.52;5.45;;;;;;;7.88;63.21;101266.47;5032808;28;20036;-86
2022/04/21 03:03:10;;;;;;;8.37;4.87;;;;;;;7.87;62.74;101264.78;5033057;28;20116;-86
2022/04/21 03:05:35;;;;;;;9.52;5.13;;;;;;;7.84;63.33;101263.88;5033549;28;20488;-87
2022/04/21 03:08:01;;;;;;;9.40;4.90;;;;;;;7.79;63.26;101260.44;5032741;28;20032;-87
2022/04/21 03:10:26;;;;;;;10.15;5.28;;;;;;;7.77;63.58;101262.16;5033803;28;20017;-87
2022/04/21 03:12:51;;;;;;;11.10;5.88;;;;;;;7.73;64.02;101256.97;5045622;28;20029;-87
2022/04/21 03:15:16;;;;;;;13.23;6.50;;;;;;;7.66;64.10;101256.94;5052669;28;20078;-87
2022/04/21 03:17:42;;;;;;;14.30;6.70;;;;;;;7.57;64.40;101255.22;5052856;28;20087;-86
2022/04/21 03:20:07;;;;;;;13.43;6.43;;;;;;;7.57;64.12;101253.47;5052885;28;20071;-86
2022/04/21 03:25:17;;;;;;;12.65;6.35;;;;;;;7.51;64.72;101258.63;5053158;28;20036;-87
2022/04/21 03:27:46;;;;;;;11.73;5.80;;;;;;;7.52;64.19;101259.47;5052139;28;20032;-86
2022/04/21 03:30:11;;;;;;;10.35;5.57;;;;;;;7.53;63.73;101254.34;5052545;28;20024;-86
2022/04/21 03:32:37;;;;;;;11.37;5.73;;;;;;;7.50;64.31;101254.31;5052482;28;20469;-86
2022/04/21 03:35:03;;;;;;;10.63;5.60;;;;;;;7.52;63.83;101259.47;5052355;28;20021;-86
2022/04/21 03:37:28;;;;;;;10.37;5.13;;;;;;;7.50;64.69;101259.50;5052416;28;20369;-87
2022/04/21 03:39:54;;;;;;;9.57;5.15;;;;;;;7.49;63.67;101260.34;5052303;28;20025;-86
2022/04/21 03:42:24;;;;;;;11.85;5.90;;;;;;;7.43;64.48;101270.63;5052348;28;20028;-87
2022/04/21 03:44:50;;;;;;;12.77;5.80;;;;;;;7.42;64.58;101266.34;5052572;28;20029;-86
2022/04/21 03:47:15;;;;;;;10.77;6.07;;;;;;;7.37;64.74;101268.03;5052550;28;20481;-86
2022/04/21 03:49:41;;;;;;;10.73;5.70;;;;;;;7.38;64.43;101267.19;5051452;28;20032;-86
2022/04/21 03:52:07;;;;;;;10.48;5.63;;;;;;;7.35;64.82;101270.63;5052831;28;20108;-87
2022/04/21 03:54:32;;;;;;;10.90;5.47;;;;;;;7.30;64.32;101258.53;5052931;28;20029;-86
2022/04/21 03:56:57;;;;;;;11.82;6.30;;;;;;;7.29;64.39;101269.72;5051783;28;20025;-87
2022/04/21 03:59:26;;;;;;;11.27;5.50;;;;;;;7.30;64.52;101276.63;5052698;28;20477;-86
2022/04/21 04:01:57;;;;;;;10.00;5.40;;;;;;;7.26;64.60;101273.16;5052447;28;20021;-87
2022/04/21 04:04:22;;;;;;;11.95;6.00;;;;;;;7.24;64.42;101275.72;5051892;28;20408;-86
2022/04/21 04:12:15;;;;;;;10.07;5.80;;;;;;;7.19;64.79;101274.84;5056435;28;20048;-86
2022/04/21 04:14:41;;;;;;;11.87;5.93;;;;;;;7.17;64.61;101273.06;5055998;28;20028;-86
2022/04/21 04:17:08;;;;;;;12.80;6.45;;;;;;;7.13;64.78;101267.03;5055972;28;20049;-86
2022/04/21 04:19:34;;;;;;;13.18;6.85;;;;;;;7.07;65.56;101274.75;5056463;28;20036;-86
2022/04/21 04:22:00;;;;;;;13.93;6.82;;;;;;;7.03;64.83;101270.41;5055772;28;20135;-86
2022/04/21 04:24:25;;;;;;;11.70;6.00;;;;;;;7.06;64.46;101267.88;5055509;28;20040;-86
2022/04/21 04:26:51;;;;;;;11.82;5.82;;;;;;;7.05;65.28;101264.41;5056047;28;20100;-86
2022/04/21 04:29:22;;;;;;;12.40;6.10;;;;;;;7.02;65.45;101266.09;5056007;28;20104;-86
2022/04/21 04:31:57;;;;;;;14.20;6.40;;;;;;;6.97;65.57;101267.81;5055580;28;20044;-86
2022/04/21 04:34:22;;;;;;;10.77;5.65;;;;;;;6.99;65.17;101271.25;5055830;28;20017;-86
2022/04/21 04:36:48;;;;;;;9.73;5.30;;;;;;;7.00;65.46;101271.28;5055681;28;20029;-86
2022/04/21 04:39:14;;;;;;;12.65;5.85;;;;;;;6.96;64.76;101264.34;5055322;28;20037;-86
2022/04/21 04:44:23;;;;;;;7.40;4.57;;;;;;;7.03;64.29;101273.88;5056393;28;20031;-86
2022/04/21 04:46:49;;;;;;;5.97;3.80;;;;;;;7.05;65.39;101279.03;5055026;28;20020;-87
2022/04/21 04:49:14;;;;;;;9.25;4.47;;;;;;;7.04;64.54;101277.31;5055781;28;20029;-86
2022/04/21 04:51:42;;;;;;;8.02;4.78;;;;;;;7.04;64.74;101285.06;5055399;28;20091;-86
2022/04/21 04:54:09;;;;;;;10.68;5.20;;;;;;;7.03;64.87;101280.75;5055531;28;20476;-86
2022/04/21 04:56:36;;;;;;;11.55;5.85;;;;;;;7.02;64.91;101279.91;5055967;28;20021;-86
2022/04/21 04:59:02;;;;;;;8.95;5.20;;;;;;;7.01;65.20;101274.72;5055080;28;20021;-85
2022/04/21 05:01:35;;;;;;;9.00;4.60;;;;;;;7.05;64.17;101279.91;5055299;28;20035;-86
2022/04/21 05:04:03;;;;;;;9.75;5.30;;;;;;;7.05;65.07;101284.19;5055300;28;20469;-86
2022/04/21 05:06:29;;;;;;;9.07;5.00;;;;;;;7.07;63.86;101287.66;5054855;28;20484;-83
2022/04/21 05:08:57;;;;;;;9.50;4.90;;;;;;;7.06;64.89;101279.03;5054658;28;20021;-85
2022/04/21 05:11:22;;;;;;;9.05;5.00;;;;;;;7.06;64.77;101276.47;5055381;28;20025;-83
2022/04/21 05:13:48;;;;;;;7.30;4.40;;;;;;;7.08;65.12;101279.91;5054858;28;20499;-88
2022/04/21 05:16:13;;;;;;;9.52;5.18;;;;;;;7.08;65.16;101285.09;5055348;28;20079;-88
2022/04/21 05:18:39;;;;;;;10.25;5.07;;;;;;;7.09;65.04;101281.66;5053722;28;20044;-85
2022/04/21 05:21:04;;;;;;;10.70;5.73;;;;;;;7.06;65.01;101275.63;5054800;28;20025;-83
2022/04/21 05:23:34;;;;;;;12.18;6.30;;;;;;;7.07;64.85;101274.75;5054900;28;20025;-83
2022/04/21 05:26:00;;;;;;;13.90;6.50;;;;;;;7.09;64.59;101275.63;5054819;28;20142;-83
2022/04/21 05:28:25;;;;;;;11.48;6.10;;;;;;;7.13;65.09;101272.19;5054484;28;20112;-83
2022/04/21 05:31:07;;;;;;;11.63;6.22;;;;;;;7.16;64.72;101274.81;5054280;28;20040;-83
2022/04/21 05:33:35;;;;;;;12.20;6.32;;;;;;;7.19;64.66;101267.09;5055257;28;20111;-83
2022/04/21 05:36:00;;;;;;;11.93;6.18;;;;;;;7.25;63.79;101268.84;5053738;28;20512;-83
2022/04/21 05:38:26;;;;;;;12.37;6.10;;;;;;;7.30;64.05;101272.28;5055214;28;20029;-83
2022/04/21 05:40:52;;;;;;;12.43;6.00;;;;;;;7.35;63.36;101270.63;5054733;28;20029;-82
2022/04/21 05:43:19;;;;;;;10.82;6.07;;;;;;;7.41;63.57;101273.22;5054205;28;20496;-83
2022/04/21 05:45:45;;;;;;;11.90;6.00;;;;;;;7.46;63.65;101274.97;5054087;28;20025;-83
2022/04/21 05:48:15;;;;;;;11.43;5.80;;;;;;;7.52;63.13;101275.84;5055050;28;20040;-84
2022/04/21 05:50:44;;;;;;;12.30;6.00;;;;;;;7.57;63.19;101279.31;5054736;28;20103;-88
2022/04/21 05:53:14;;;;;;;14.38;6.97;;;;;;;7.59;63.06;101281.91;5054968;28;20086;-89
2022/04/21 05:55:40;;;;;;;14.57;7.10;;;;;;;7.66;62.62;101281.06;5054194;28;20041;-85
2022/04/21 05:58:05;;;;;;;14.13;6.77;;;;;;;7.71;62.92;101281.94;5054346;28;20068;-87
2022/04/21 06:00:31;;;;;;;14.67;6.77;;;;;;;7.79;62.68;101281.97;5054922;28;20031;-87
2022/04/21 06:02:56;;;;;;;17.27;7.40;;;;;;;7.83;62.43;101280.25;5053380;28;20029;-88
2022/04/21 06:05:21;;;;;;;13.88;6.75;;;;;;;7.88;62.33;101276.81;5054419;28;20508;-88
2022/04/21 06:07:47;;;;;;;13.32;6.90;;;;;;;7.94;62.15;101272.53;5054752;28;20029;-92
2022/04/21 06:10:12;;;;;;;14.82;6.90;;;;;;;7.99;61.85;101273.44;5054391;28;20432;-87
2022/04/21 06:12:38;;;;;;;17.00;6.60;;;;;;;8.01;61.79;101267.41;5054029;28;20485;-87
2022/04/21 06:15:03;;;;;;;14.82;6.97;;;;;;;8.14;61.75;101282.94;5054254;28;20040;-88
2022/04/21 06:17:28;;;;;;;13.38;6.75;;;;;;;8.19;61.12;101283.78;5053676;28;20049;-88
2022/04/21 06:19:55;;;;;;;16.17;7.82;;;;;;;8.24;60.82;101276.91;5053583;28;20035;-85
2022/04/21 06:22:20;;;;;;;14.80;7.35;;;;;;;8.30;60.39;101276.06;5048736;28;20069;-83
2022/04/21 06:24:46;;;;;;;14.93;7.30;;;;;;;8.34;60.62;101272.59;5052505;28;20044;-82
2022/04/21 06:27:11;;;;;;;14.77;7.47;;;;;;;8.41;60.34;101270.88;5053018;28;20090;-83
2022/04/21 06:29:36;;;;;;;15.10;7.00;;;;;;;8.48;60.16;101273.50;5052221;28;20423;-82
2022/04/21 06:32:02;;;;;;;13.50;6.73;;;;;;;8.56;59.99;101270.06;5052653;28;20033;-81
2022/04/21 06:34:27;;;;;;;15.13;7.15;;;;;;;8.66;60.37;101266.63;5052306;28;20033;-83
2022/04/21 06:36:52;;;;;;;15.57;7.73;;;;;;;8.73;59.63;101270.03;5053607;28;20083;-82
2022/04/21 06:39:17;;;;;;;15.93;7.37;;;;;;;8.78;59.59;101266.59;5052470;28;20028;-82
2022/04/21 06:41:43;;;;;;;14.53;7.30;;;;;;;8.86;59.86;101260.56;5053146;28;20033;-81
2022/04/21 06:49:39;;;;;;;14.40;6.85;;;;;;;9.18;58.75;101251.84;5053294;28;20040;-84
2022/04/21 06:52:05;;;;;;;12.63;6.73;;;;;;;9.26;58.51;101257.88;5052939;28;20025;-85
2022/04/21 06:54:30;;;;;;;12.37;6.37;;;;;;;9.35;58.74;101251.78;5053411;28;20082;-84
2022/04/21 06:56:55;;;;;;;14.00;6.78;;;;;;;9.48;57.48;101257.78;5052814;28;20477;-85
2022/04/21 06:59:20;;;;;;;11.83;5.87;;;;;;;9.55;58.15;101252.56;5052600;28;20040;-84
2022/04/21 07:01:48;;;;;;;12.17;6.30;;;;;;;9.70;57.56;101249.03;5052871;28;20461;-85
2022/04/21 07:04:14;;;;;;;12.30;6.30;;;;;;;11.07;57.34;101246.28;5053232;28;20017;-84
2022/04/21 07:06:40;;;;;;;10.43;5.77;;;;;;;13.77;50.77;101238.44;5051997;28;20047;-84
2022/04/21 07:09:05;;;;;;;12.17;6.30;;;;;;;15.96;42.77;101252.72;5053057;28;20067;-84
2022/04/21 07:11:31;;;;;;;11.33;6.10;;;;;;;17.08;40.54;101246.38;5053056;28;20490;-85
2022/04/21 07:13:57;;;;;;;11.70;6.00;;;;;;;17.72;39.10;101253.63;5051535;28;20040;-85
2022/04/21 07:16:22;;;;;;;11.60;5.83;;;;;;;17.70;38.50;101254.59;5032993;28;20448;-85
2022/04/21 07:18:47;;;;;;;11.20;5.70;;;;;;;16.97;40.97;101246.78;5032774;28;20029;-84
2022/04/21 07:21:13;;;;;;;10.53;5.90;;;;;;;16.27;40.78;101256.13;5032293;28;20018;-83
2022/04/21 07:23:39;;;;;;;10.53;5.77;;;;;;;15.34;42.69;101256.28;5032624;28;20045;-83
2022/04/21 07:26:04;;;;;;;10.40;5.60;;;;;;;14.41;45.07;101264.78;5033119;28;20500;-82
2022/04/21 07:28:29;;;;;;;13.63;5.90;;;;;;;13.51;46.29;101256.38;5032200;28;20032;-83
2022/04/21 07:30:55;;;;;;;14.00;6.27;;;;;;;12.71;48.27;101269.16;5047924;28;20025;-83
2022/04/21 07:33:20;;;;;;;11.03;5.77;;;;;;;12.51;49.16;101267.72;5052697;28;20119;-82
2022/04/21 07:35:45;;;;;;;11.60;6.20;;;;;;;12.09;50.20;101277.94;5051774;28;20040;-83
2022/04/21 07:38:11;;;;;;;10.93;6.40;;;;;;;11.69;51.27;101271.50;5052722;28;20107;-83
2022/04/21 07:40:38;;;;;;;13.33;6.50;;;;;;;11.49;51.82;101270.91;5052214;28;20074;-84
2022/04/21 07:43:08;;;;;;;13.00;6.32;;;;;;;11.39;51.92;101275.34;5051559;28;20084;-83
2022/04/21 07:45:40;;;;;;;11.95;6.13;;;;;;;11.36;52.15;101267.63;5052744;28;20033;-84
2022/04/21 07:48:08;;;;;;;10.48;5.82;;;;;;;11.43;53.07;101269.25;5051965;28;20028;-83
2022/04/21 07:50:34;;;;;;;10.88;6.05;;;;;;;11.52;52.41;101263.94;5051493;28;20044;-82
2022/04/21 07:53:15;;;;;;;12.00;6.23;;;;;;;11.49;52.28;101258.75;5052025;28;20389;-84
2022/04/21 07:55:41;;;;;;;9.38;5.47;;;;;;;11.66;52.44;101262.91;5051626;28;20092;-84
2022/04/21 07:58:06;;;;;;;13.95;6.30;;;;;;;11.71;52.33;101263.69;5052310;28;20024;-84
2022/04/21 08:00:36;;;;;;;13.13;6.40;;;;;;;11.83;52.46;101270.47;5052129;28;20034;-84
2022/04/21 08:03:02;;;;;;;11.52;6.10;;;;;;;11.87;51.78;101260.00;5051708;28;20119;-84
2022/04/21 08:05:30;;;;;;;12.35;5.75;;;;;;;11.99;51.20;101273.75;5052681;28;20072;-84
2022/04/21 08:07:56;;;;;;;10.30;5.70;;;;;;;12.00;52.28;101265.91;5052227;28;20025;-83
2022/04/21 08:10:22;;;;;;;13.53;6.30;;;;;;;12.04;52.08;101262.41;5051059;28;20470;-84
2022/04/21 08:12:49;;;;;;;9.65;5.78;;;;;;;12.22;53.07;101269.94;5052038;28;20044;-84
2022/04/21 08:15:28;;;;;;;13.75;5.82;;;;;;;12.34;51.32;101272.38;5052183;28;20473;-83
2022/04/21 08:17:55;;;;;;;11.35;5.93;;;;;;;12.31;51.97;101264.59;5051124;28;20032;-84
2022/04/21 08:20:22;;;;;;;13.18;6.18;;;;;;;12.32;51.66;101266.31;5052357;28;20047;-85
2022/04/21 08:22:47;;;;;;;10.95;5.90;;;;;;;12.44;52.61;101260.91;5051859;28;20637;-84
2022/04/21 08:33:25;;;;;;;11.00;5.82;;;;;;;12.85;51.55;101266.31;5052486;28;20044;-86
2022/04/21 08:35:51;;;;;;;11.63;6.03;;;;;;;12.87;51.69;101266.28;5051941;28;20033;-84
2022/04/21 08:38:17;;;;;;;9.50;5.60;;;;;;;13.02;52.68;101265.13;5051565;28;20029;-83
2022/04/21 08:40:56;;;;;;;11.57;5.83;;;;;;;13.14;50.75;101262.28;5051581;28;20192;-85
2022/04/21 08:43:27;;;;;;;11.75;6.20;;;;;;;13.11;50.98;101262.38;5051913;28;20029;-84
2022/04/21 08:45:53;;;;;;;11.75;6.18;;;;;;;13.17;50.31;101264.84;5051173;28;20029;-85
2022/04/21 08:48:21;;;;;;;10.43;5.97;;;;;;;13.27;51.13;101268.13;5052062;28;20027;-84
2022/04/21 08:50:49;;;;;;;8.65;5.00;;;;;;;13.37;51.72;101256.63;5051910;28;20036;-83
2022/04/21 08:53:17;;;;;;;10.05;5.55;;;;;;;13.51;50.76;101247.72;5054025;28;20032;-84
2022/04/21 08:55:47;;;;;;;11.65;6.03;;;;;;;13.55;50.59;101257.16;5055384;28;20025;-85
2022/04/21 08:58:13;;;;;;;7.88;4.93;;;;;;;13.69;51.51;101260.34;5055395;28;20029;-83
2022/04/21 09:00:39;;;;;;;13.70;6.13;;;;;;;13.79;49.79;101249.69;5055286;28;20029;-84
2022/04/21 09:03:07;;;;;;;10.18;5.45;;;;;;;13.86;50.28;101246.06;5055377;28;20477;-83
2022/04/21 09:05:35;;;;;;;9.80;4.90;;;;;;;13.97;50.27;101248.44;5054804;28;20040;-86
2022/04/21 09:08:01;;;;;;;7.78;4.90;;;;;;;14.09;49.14;101242.06;5054913;28;20021;-84
2022/04/21 09:10:28;;;;;;;9.00;5.20;;;;;;;14.14;48.10;101232.38;5055076;28;20021;-84
2022/04/21 09:12:59;;;;;;;8.02;4.55;;;;;;;14.09;46.12;101247.28;5054652;28;20016;-86
2022/04/21 09:15:29;;;;;;;6.63;4.07;;;;;;;14.20;47.24;101245.25;5055256;28;20021;-83
2022/04/21 09:18:10;;;;;;;6.63;4.00;;;;;;;14.39;45.30;101248.28;5055034;28;20020;-83
2022/04/21 09:20:36;;;;;;;7.30;3.63;;;;;;;14.50;45.80;101235.81;5054202;28;20082;-84
2022/04/21 09:23:05;;;;;;;8.05;4.07;;;;;;;14.69;45.65;101239.75;5054834;28;20112;-84
2022/04/21 09:25:32;;;;;;;6.03;3.67;;;;;;;14.90;44.50;101247.00;5055056;28;20448;-84
2022/04/21 09:28:02;;;;;;;8.27;4.55;;;;;;;14.82;44.34;101239.38;5053984;28;20033;-84
2022/04/21 09:30:27;;;;;;;10.27;4.70;;;;;;;14.75;45.39;101237.84;5054996;28;20108;-84
2022/04/21 09:32:55;;;;;;;8.40;5.20;;;;;;;14.78;45.52;101231.66;5054568;28;20079;-84
2022/04/21 09:35:22;;;;;;;6.82;4.50;;;;;;;14.69;43.61;101230.19;5053795;28;20105;-87
2022/04/21 09:37:53;;;;;;;6.13;3.90;;;;;;;14.76;42.65;101234.31;5054416;28;20032;-85
2022/04/21 09:40:20;;;;;;;7.13;4.20;;;;;;;14.53;41.55;101232.25;5054960;28;20033;-85
2022/04/21 09:43:12;;;;;;;5.97;3.80;;;;;;;14.44;41.32;101224.66;5054331;28;20033;-84
2022/04/21 09:48:30;;;;;;;8.07;3.50;;;;;;;14.89;38.50;101234.00;5054058;28;20131;-84
2022/04/21 09:51:07;;;;;;;5.43;3.70;;;;;;;14.77;39.14;101227.34;5054513;28;20036;-82
2022/04/21 09:53:46;;;;;;;5.50;3.60;;;;;;;14.76;39.31;101217.78;5054774;28;20032;-81
2022/04/21 09:56:12;;;;;;;7.07;3.55;;;;;;;14.86;39.17;101216.63;5053525;28;20484;-81
2022/04/21 09:58:39;;;;;;;5.07;3.47;;;;;;;15.06;38.52;101221.31;5054550;28;20029;-81
2022/04/21 10:01:04;;;;;;;7.32;3.50;;;;;;;15.12;37.47;101215.06;5054138;28;20078;-82
2022/04/21 10:03:34;;;;;;;4.10;3.00;;;;;;;15.16;35.81;101216.69;5053115;28;20033;-82
2022/04/21 10:06:00;;;;;;;8.13;3.55;;;;;;;15.25;37.04;101216.41;5053755;28;20473;-82
2022/04/21 10:08:26;;;;;;;7.70;3.63;;;;;;;15.39;37.23;101216.00;5054364;28;20096;-82
2022/04/21 10:10:52;;;;;;;4.93;3.23;;;;;;;15.51;35.76;101206.09;5053202;28;20120;-82
2022/04/21 10:13:21;;;;;;;4.65;2.92;;;;;;;15.79;36.26;101207.88;5054211;28;20465;-82
2022/04/21 10:15:47;;;;;;;5.47;2.90;;;;;;;16.03;36.04;101198.41;5053192;28;20053;-82
2022/04/21 10:18:18;;;;;;;4.97;3.00;;;;;;;16.09;36.90;101200.84;5054135;28;20021;-82
2022/04/21 10:20:45;;;;;;;4.05;3.10;;;;;;;16.14;37.34;101191.03;5053965;28;20306;-81
2022/04/21 10:23:15;;;;;;;5.65;3.45;;;;;;;16.21;36.65;101196.94;5053292;28;20029;-82
2022/04/21 10:25:42;;;;;;;6.13;3.83;;;;;;;16.12;35.97;101192.00;5054009;28;20377;-81
2022/04/21 10:28:43;;;;;;;7.75;4.03;;;;;;;15.77;37.17;101186.97;5053063;28;20753;-81
2022/04/21 10:31:25;;;;;;;9.07;3.80;;;;;;;15.63;36.49;101183.94;4952968;29;20036;-81
2022/04/21 10:33:57;;;;;;;5.35;3.42;;;;;;;15.92;37.83;101174.34;5027283;28;20422;-81
2022/04/21 10:36:42;;;;;;;6.30;3.45;;;;;;;16.02;36.34;101183.59;5053792;28;20021;-83
2022/04/21 10:39:21;;;;;;;5.20;3.30;;;;;;;16.12;36.83;101179.75;5053467;28;20072;-82
2022/04/21 10:41:46;;;;;;;5.07;2.75;;;;;;;16.58;35.10;101171.25;5052756;28;20282;-82
2022/04/21 10:44:16;;;;;;;2.47;2.27;;;;;;;16.82;34.40;101177.41;5052557;28;20021;-81
2022/04/21 10:46:42;;;;;;;3.50;2.40;;;;;;;17.00;34.58;101175.03;5053474;28;20021;-81
2022/04/21 10:49:09;;;;;;;4.18;2.30;;;;;;;17.20;33.59;101163.81;5053358;28;20033;-82
2022/04/21 10:57:16;;;;;;;7.30;2.80;;;;;;;16.97;30.66;101157.66;5052934;28;20063;-82
2022/04/21 11:00:05;;;;;;;5.18;2.80;;;;;;;16.46;31.32;101169.91;5052328;28;20107;-82
2022/04/21 11:02:39;;;;;;;6.25;2.67;;;;;;;16.62;32.81;101159.75;5053059;28;20111;-82
2022/04/21 11:05:22;;;;;;;4.97;2.88;;;;;;;16.92;31.54;101155.16;5052853;28;20143;-82
2022/04/21 11:07:52;;;;;;;3.78;2.65;;;;;;;17.05;32.29;101158.22;5053051;28;20020;-82
2022/04/21 11:10:37;;;;;;;3.70;2.75;;;;;;;17.23;31.96;101155.78;5053023;28;20476;-82
2022/04/21 11:13:03;;;;;;;5.20;2.92;;;;;;;17.16;30.88;101159.56;5052510;28;20017;-83
2022/04/21 11:15:39;;;;;;;5.57;2.95;;;;;;;17.03;32.67;101160.03;5051558;28;20072;-82
2022/04/21 11:18:10;;;;;;;5.55;3.00;;;;;;;16.67;32.05;101150.81;5052887;28;20447;-82
2022/04/21 11:20:43;;;;;;;4.78;2.83;;;;;;;16.72;31.76;101150.66;5052473;28;20059;-85
2022/04/21 11:23:29;;;;;;;4.15;2.90;;;;;;;16.83;31.52;101135.38;5052900;28;20083;-83
2022/04/21 11:26:05;;;;;;;4.00;2.60;;;;;;;17.13;32.01;101136.94;5020973;28;20033;-83
2022/04/21 11:28:31;;;;;;;;;;;;;;;17.26;30.56;101134.69;5052782;28;20431;-85
2022/04/21 11:30:58;;;;;;;4.57;2.70;;;;;;;17.45;32.11;101130.44;5052917;28;19963;-84
2022/04/21 11:33:23;;;;;;;6.60;2.83;;;;;;;17.57;29.01;101128.25;5052290;28;20078;-83
2022/04/21 11:35:48;;;;;;;2.87;2.20;;;;;;;17.79;32.21;101111.66;5052453;28;20025;-84
2022/04/21 11:38:14;;;;;;;4.37;2.50;;;;;;;18.08;29.84;101113.06;5068390;22;20050;-84
2022/04/21 11:40:40;;;;;;;5.77;3.20;;;;;;;17.92;30.87;101110.19;5051524;28;20031;-84
2022/04/21 11:43:11;;;;;;;6.75;3.00;;;;;;;17.93;31.42;101117.16;5052907;28;20049;-85
2022/04/21 11:45:40;;;;;;;5.07;2.90;;;;;;;17.95;31.54;101104.81;5052445;28;20075;-84
2022/04/21 11:48:11;;;;;;;3.85;2.70;;;;;;;17.92;30.28;101110.19;5052781;28;20477;-83
2022/04/21 11:50:36;;;;;;;7.72;3.30;;;;;;;17.74;30.78;101107.44;5072878;28;20021;-84
2022/04/21 11:53:12;;;;;;;4.07;2.90;;;;;;;17.63;28.98;101103.50;5072461;28;20025;-84
2022/04/21 11:55:37;;;;;;;4.32;2.70;;;;;;;17.58;31.12;101101.94;5071605;28;20024;-83
2022/04/21 11:58:02;;;;;;;4.23;2.70;;;;;;;17.91;30.22;101103.22;5072685;28;20496;-85
2022/04/21 12:08:44;;;;;;;5.72;3.10;;;;;;;18.07;28.53;101106.09;5051856;28;20043;-86
2022/04/21 12:11:10;;;;;;;5.05;3.00;;;;;;;17.97;29.55;101102.16;5052538;28;20029;-86
2022/04/21 12:13:36;;;;;;;5.53;3.10;;;;;;;18.08;29.46;101091.19;5052376;28;20025;-84
2022/04/21 12:16:05;;;;;;;5.82;2.92;;;;;;;17.53;29.12;101095.19;5051476;28;20488;-86
2022/04/21 12:18:47;;;;;;;4.47;3.00;;;;;;;17.52;29.99;101091.69;5053112;28;20036;-92